Duckwater, Nevada Weather observations

Data are for 10 minute period ending at time listed.
 Day   Time   Solar   Ave.   Ave.  Ave.  Vector  Max.   Baro.   Total    
  of    of     Rad.   Air    Rel.  Wind   Wind   Wind  Press.  Precip.   
Year   Day            Temp.  Hum.  Speed  Dir.   Gust                    
2016   (PST)   w/m2    F      %     mph   deg.    mph    mb.     in.    
-----------------------------------------------------------------------
 123   12:10    999  999.0   999  999.0   999   999.0   999.0  999.00  
 123   12:20   1002   64.3    25    4.4   201    11.2   836.8   0.00  
 123   12:30   1089   64.5    24    6.6   200    14.4   836.7   0.00  
 123   12:40   1014   65.4    25    6.1   135    10.2   836.6   0.00  
 123   12:50    227   63.0    26    7.8   158    15.6   836.6   0.00  
 123   13:00    605   62.1    27    6.3   184    16.0   836.5   0.00  
 123   13:10   1038   64.5    25    7.8   166    12.1   836.5   0.00  
 123   13:20    763   64.7    26    9.2   169    18.1   836.5   0.00  
 123   13:30    945   66.2    24    7.7   174    13.1   836.4   0.00  
 123   13:40    844   65.7    25    5.1   166    15.3   836.4   0.00  
 123   13:50    525   64.9    26    8.5   155    17.2   836.3   0.00  
 123   14:00    223   62.6    26    7.3   160    12.9   836.3   0.00  
 123   14:10    364   62.6    25    2.1   185     5.3   836.2   0.00  
 123   14:20    610   64.1    25    8.6   213    14.5   836.0   0.00  
 123   14:30    776   63.5    29   13.1   241    18.1   835.9   0.00  
 123   14:40    789   62.9    30   13.2   251    20.0   836.0   0.00  
 123   14:50    754   63.2    28   11.2   245    18.7   836.0   0.00  
 123   15:00    722   63.7    28   12.1   236    18.9   835.9   0.00  
 123   15:10    673   63.6    28   12.8   226    18.4   835.8   0.00  
 123   15:20    633   63.5    28   11.5   236    16.3   835.8   0.00  
 123   15:30    602   63.4    26    8.3   239    15.6   835.8   0.00  
 123   15:40    569   63.8    26    8.3   240    12.8   835.7   0.00  
 123   15:50    535   64.4    25    6.0   251     9.9   835.7   0.00  
 123   16:00    502   64.1    25    8.0   240    12.9   835.7   0.00  
 123   16:10    468   63.9    24    7.9   246    12.1   835.7   0.00  
 123   16:20    433   64.0    24    6.4   255    12.6   835.7   0.00  
 123   16:30    400   64.2    24    6.7   244    12.3   835.7   0.00  
 123   16:40    364   64.5    24    5.4   254    11.4   835.6   0.00  
 123   16:50    329   63.7    24    6.3   253    11.3   835.6   0.00  
 123   17:00    295   63.6    28    8.0   257    14.8   835.6   0.00  
 123   17:10    258   62.8    30    9.2   251    14.0   835.6   0.00  
 123   17:20    223   62.5    28    7.6   246    11.2   835.6   0.00  
 123   17:30    189   62.7    28    6.2   251     9.3   835.5   0.00  
 123   17:40    156   62.5    29    4.8   258     7.1   835.6   0.00  
 123   17:50    126   61.9    30    6.1   260     8.6   835.6   0.00  
 123   18:00     58   61.0    32    5.3   268     7.4   835.7   0.00  
 123   18:10     16   58.7    36    3.1   290     4.9   835.7   0.00  
 123   18:20     20   57.9    36    2.5   306     4.1   835.7   0.00  
 123   18:30      8   56.9    37    2.1   316     3.1   835.8   0.00  
 123   18:40      5   56.7    37    2.1   334     2.8   835.8   0.00  
 123   18:50      1   56.5    37    1.3   359     3.0   835.9   0.00  
 123   19:00      0   55.9    41    1.0    26     1.7   836.1   0.00  
 123   19:10      0   55.0    43    0.8    24     1.7   836.2   0.00  
 123   19:20      0   54.4    42    0.9   273     2.8   836.3   0.00  
 123   19:30      0   53.5    44    0.9   304     2.6   836.4   0.00  
 123   19:40      0   53.2    46    0.4    30     2.4   836.5   0.00  
 123   19:50      0   52.2    48    1.1   152     2.1   836.6   0.00  
 123   20:00      0   51.6    48    0.2   154     1.1   836.7   0.00  
 123   20:10      0   51.9    48    0.6   154     1.1   836.8   0.00  
 123   20:20      0   51.3    52    0.9    54     2.1   836.9   0.00  
 123   20:30      0   50.5    54    1.4    52     2.5   837.0   0.00  
 123   20:40      0   49.6    56    1.9    54     3.4   837.1   0.00  
 123   20:50      0   49.4    56    3.6    30     5.2   837.2   0.00  
 123   21:00      0   49.4    55    3.4    62     5.0   837.3   0.00  
 123   21:10      0   50.0    53    3.5    53     4.7   837.3   0.00  
 123   21:20      0   47.3    60    1.2   246     3.1   837.3   0.00  
 123   21:30      0   46.7    62    2.4     6     3.8   837.3   0.00  
 123   21:40      0   47.7    59    1.8   359     3.8   837.3   0.00  
 123   21:50      0   47.9    60    0.5     3     1.9   837.3   0.00  
 123   22:00      0   47.4    61    0.9    26     3.1   837.3   0.00  
 123   22:10      0   47.5    59    3.4   354     6.4   837.3   0.00  
 123   22:20      0   47.3    59    3.8   354     7.1   837.3   0.00  
 123   22:30      0   46.7    60    5.5   359     8.7   837.2   0.00  
 123   22:40      0   46.8    60    5.0    10     7.7   837.2   0.00  
 123   22:50      0   45.6    63    2.9   353     6.9   837.2   0.00  
 123   23:00      0   44.6    64    2.3   329     4.7   837.3   0.00  
 123   23:10    999  999.0   999  999.0   999   999.0   999.0  999.00  
 123   23:20    999  999.0   999  999.0   999   999.0   999.0  999.00  
 123   23:30    999  999.0   999  999.0   999   999.0   999.0  999.00  
 123   23:40    999  999.0   999  999.0   999   999.0   999.0  999.00  
 123   23:50    999  999.0   999  999.0   999   999.0   999.0  999.00  
 124    0:00    999  999.0   999  999.0   999   999.0   999.0  999.00  
 124    0:10    999  999.0   999  999.0   999   999.0   999.0  999.00  
 124    0:20    999  999.0   999  999.0   999   999.0   999.0  999.00  
 124    0:30    999  999.0   999  999.0   999   999.0   999.0  999.00  
 124    0:40    999  999.0   999  999.0   999   999.0   999.0  999.00  
 124    0:50    999  999.0   999  999.0   999   999.0   999.0  999.00  
 124    1:00    999  999.0   999  999.0   999   999.0   999.0  999.00  
 124    1:10    999  999.0   999  999.0   999   999.0   999.0  999.00  
 124    1:20      0   41.1    70    4.0   301     6.6   837.4   0.00  
 124    1:30      0   41.3    70    4.9   330     8.0   837.4   0.00  
 124    1:40      0   40.5    71    4.6   338     7.0   837.5   0.00  
 124    1:50      0   40.1    72    5.2   342     7.7   837.5   0.00  
 124    2:00      0   39.4    73    4.3   339     8.1   837.6   0.00  
 124    2:10      0   39.0    74    3.8   350     6.2   837.6   0.00  
 124    2:20      0   39.5    72    6.0   357     8.5   837.6   0.00  
 124    2:30      0   39.5    72    6.6   349     9.4   837.6   0.00  
 124    2:40      0   38.5    75    5.5   345     8.0   837.7   0.00  
 124    2:50      0   38.6    75    4.7   358     6.6   837.7   0.00  
 124    3:00      0   39.7    72    5.3     8     9.1   837.8   0.00  
 124    3:10      0   40.4    70    4.4     3     8.3   837.8   0.00  
 124    3:20      0   40.5    69    2.2   328     4.6   837.8   0.00  
 124    3:30      0   39.8    72    2.4   302     5.3   837.8   0.00  
 124    3:40      0   39.5    72    4.4   286     6.1   837.9   0.00  
 124    3:50      0   39.8    71    4.2   320     6.3   838.0   0.00  
 124    4:00      0   39.5    72    4.8   324     7.0   838.0   0.00  
 124    4:10      0   39.1    73    4.2   338     7.3   838.1   0.00  
 124    4:20      0   39.1    73    4.9   346     8.6   838.1   0.00  
 124    4:30      0   38.8    73    4.6   344     7.9   838.1   0.00  
 124    4:40      3   39.3    72    4.9   357     8.0   838.2   0.00  
 124    4:50      6   38.6    74    4.0   328     6.4   838.2   0.00  
 124    5:00      8   37.7    76    4.5   322     6.9   838.4   0.00  
 124    5:10     25   37.5    76    3.9   341     6.2   838.5   0.00  
 124    5:20     68   38.3    75    4.8   345     6.9   838.5   0.00  
 124    5:30    105   39.9    72    4.8   342     6.9   838.6   0.00  
 124    5:40    136   41.7    67    5.4   354     8.5   838.7   0.00  
 124    5:50    164   42.8    66    5.2   354     7.2   838.7   0.00  
 124    6:00    193   44.5    64    4.2   344     6.9   838.7   0.00  
 124    6:10    226   45.9    61    4.9   337     8.6   838.7   0.00  
 124    6:20    261   46.6    60    5.0   334     8.4   838.8   0.00  
 124    6:30    295   48.2    57    4.6   348     7.6   838.8   0.00  
 124    6:40    330   49.3    55    5.3   347     9.6   838.8   0.00  
 124    6:50    365   50.9    53    4.9   346     8.7   838.8   0.00  
 124    7:00    400   52.4    51    4.8   338     6.8   838.8   0.00  
 124    7:10    434   54.0    49    4.5   338     6.5   838.8   0.00  
 124    7:20    469   55.3    46    4.0   351     6.1   838.8   0.00  
 124    7:30    503   57.1    42    4.0   354     5.7   838.8   0.00  
 124    7:40    537   58.4    38    2.9     4     4.7   838.8   0.00  
 124    7:50    569   59.1    35    2.4   320     5.0   838.8   0.00  
 124    8:00    603   60.0    33    1.8    60     3.4   838.8   0.00  
 124    8:10    633   60.8    33    2.3   272     5.0   838.7   0.00  
 124    8:20    662   60.1    33    2.1   255     5.0   838.7   0.00  
 124    8:30    692   62.8    31    1.9   214     5.4   838.7   0.00  
 124    8:40    722   62.9    31    1.3   226     3.5   838.6   0.00  
 124    8:50    749   63.7    29    3.8   146     8.8   838.6   0.00  
 124    9:00    776   63.9    28    4.4   168    11.2   838.5   0.00  
 124    9:10    799   62.9    28    5.7   185     9.1   838.4   0.00  
 124    9:20    823   62.9    28    4.3   206     9.1   838.4   0.00  
 124    9:30    844   63.4    27    5.0   203     8.5   838.4   0.00  
 124    9:40    864   63.7    26    4.9   224     8.9   838.3   0.00  
 124    9:50    883   64.0    26    7.0   196    11.8   838.3   0.00  
 124   10:00    901   64.5    26    6.5   195    10.4   838.3   0.00  
 124   10:10    918   65.2    26    3.5   190     8.4   838.3   0.00  
 124   10:20    942   66.3    25    5.9   143    13.6   838.2   0.00  
 124   10:30    721   65.3    25    8.6   189    15.4   838.2   0.00  
 124   10:40    825   66.6    24    7.6   154    13.8   838.1   0.00  
 124   10:50    767   65.1    25    5.7   107    13.9   838.0   0.00  
 124   11:00   1038   66.9    23    4.7   119    12.6   837.9   0.00  
 124   11:10   1028   67.3    22    8.8   150    14.3   837.6   0.00  
 124   11:20   1035   67.1    22    7.4   160    16.4   837.5   0.00  
 124   11:30   1014   68.0    20    9.9   152    17.8   837.5   0.00  
 124   11:40    998   67.8    20    8.8   131    16.9   837.4   0.00  
 124   11:50    991   67.9    20    8.8   153    18.8   837.3   0.00  
 124   12:00    988   67.9    20    6.1   183    16.0   837.3   0.00  

Return to Duckwater graphs page.


Western Regional Climate Center,wrcc@dri.edu